Tiempo atmosférico en la estación meteorológica de Medina De Rioseco, Valladolid (731 m.)



Fecha
DESCASC
Temp. máxima en grados centígrados (hora)
DESCASC
Temp. mínima en grados centígrados (hora)
DESCASC
Temp. media en grados centígrados
DESCASC
Racha de viento máxima en m/sg (hora)
DESCASC
Velocidad máxima media en intervalos de 10 minutos(hora)
DESCASC
Precipitaciones diarias en mm
DESCASC
Precipitaciones de 00:00 a 06:00 en mm
DESCASC
Precipitaciones de 06:00 a 12:00 en mm
DESCASC
Precipitaciones de 12:00 a 18:00 en mm
DESCASC
Precipitaciones de 18:00 a 24:00 en mm
DESCASC
10-07-2020 30.6 (17:20) 14.3 (06:50) 22.5 12.5 (23:00) 6.39 (23:00) 0 0 0 0 0
09-07-2020 33.6 (17:00) 16.4 (06:10) 25 16.11 (19:20) 8.89 (19:30) 0.6 0 0 0 0.6
08-07-2020 33.7 (17:20) 16 (06:30) 24.9 13.06 (19:40) 7.78 (19:40) 0.6 0 0 0 0.6
07-07-2020 36.1 (19:00) 11.8 (06:50) 23.9 11.39 (01:40) 6.11 (01:50) 0 0 0 0 0
06-07-2020 30.3 (17:00) 15.7 (00:00) 23 12.22 (09:20) 6.39 (09:50) 0 0 0 0 0
05-07-2020 33.2 (17:50) 14.1 (06:40) 23.7 11.67 (23:59) 6.94 (23:10) 0 0 0 0 0
04-07-2020 30.9 (18:20) 9.6 (07:20) 20.3 10.56 (23:00) 6.39 (22:50) 0 0 0 0 0
03-07-2020 26.4 (18:10) 9.5 (06:50) 17.9 10.28 (01:50) 5.28 (00:10) 0 0 0 0 0
02-07-2020 27.8 (17:50) 9.7 (00:00) 18.7 12.5 (21:20) 6.94 (23:00) 0 0 0 0 0
01-07-2020 32.2 (17:20) 13.9 (00:00) 23.1 12.5 (16:30) 7.5 (18:20) 0 0 0 0 0
30-06-2020 34.8 (16:40) 13.8 (00:00) 24.3 11.94 (20:00) 5.83 (20:20) 0 0 0 0 0
29-06-2020 31.8 (18:20) 13.5 (00:00) 22.6 8.89 (15:40) 4.44 (23:10) 0 0 0 0 0
28-06-2020 30.9 (18:00) 10.4 (00:00) 20.6 8.06 (20:10) 4.72 (16:30) 0 0 0 0 0
27-06-2020 28.4 (18:10) 12.6 (00:00) 20.5 9.44 (15:30) 5.83 (15:00) 0 0 0 0 0
26-06-2020 -- (--) -- (--) -- -- (--) -- (--) -- -- -- 0 0
25-06-2020 -- (--) -- (--) -- -- (--) -- (--) -- -- -- -- --
24-06-2020 -- (--) -- (--) -- -- (--) -- (--) -- -- -- -- --
23-06-2020 -- (--) -- (--) -- -- (--) -- (--) -- 0 0 0 --
22-06-2020 32.1 (17:50) 12.8 (00:00) 22.4 13.61 (18:00) 5.83 (00:40) 0 0 0 0 0
21-06-2020 30 (18:00) 7.9 (00:00) 19 10.83 (22:40) 6.11 (22:30) 0 0 0 0 0
20-06-2020 29.4 (18:10) 8.2 (00:00) 18.8 8.89 (19:00) 5.83 (19:00) 0 0 0 0 0
19-06-2020 27.3 (18:30) 7.8 (00:00) 17.5 8.33 (14:00) 4.72 (14:00) 0 0 0 0 0
18-06-2020 24.5 (19:00) 9.2 (05:20) 16.8 8.06 (19:40) 4.17 (17:50) 0 0 0 0 0
17-06-2020 22.3 (19:00) 8.6 (00:00) 15.4 6.67 (23:10) 3.89 (00:10) 0 0 0 0 0
16-06-2020 21.5 (15:00) 8.5 (00:00) 15 12.22 (15:10) 8.06 (14:40) 0.8 0 0 0.8 0
15-06-2020 22.5 (15:40) 5.4 (00:00) 14 9.17 (16:00) 5.83 (19:50) 0 0 0 0 0
14-06-2020 20.5 (14:50) 4.3 (00:00) 12.4 9.72 (16:30) 6.11 (19:10) 0 0 0 0 0
13-06-2020 17.8 (17:30) 7.1 (00:00) 12.4 11.11 (12:00) 6.39 (10:40) 0 0 0 0 0
12-06-2020 16.5 (15:30) 8.4 (00:00) 12.4 15.28 (15:40) 9.44 (15:40) 3.2 0 0 1.4 1.8
11-06-2020 20.4 (16:00) 7.8 (00:00) 14.1 17.78 (19:00) 10 (17:20) 0 0 0 0 0

Gráficas

Temp. máximas Temp. mínimas Temp. medias Precipitaciones Rachas de viento máximas Velocidades máximas media en intervalos de 10 minutos

Datos horarios

Fecha y hora oficial Temperatura (ºC) Velocidad del viento (km/h) Dirección del viento Racha (km/h) Dirección de racha Precipitación (mm) Presión (hPa) Tendencia (hPa) Humedad (%)
2020-07-10 23:00:00 17.9 23 Este 45 Este 0 -- -- 71
2020-07-10 22:00:00 20 21 Este 44 Este 0 -- -- 65
2020-07-10 21:00:00 23.7 22 Este 39 Este 0 -- -- 55
2020-07-10 20:00:00 27.2 19 Este 36 Este 0 -- -- 43
2020-07-10 19:00:00 29.6 20 Este 36 Este 0 -- -- 38
2020-07-10 18:00:00 30.5 13 Este 27 Este 0 -- -- 35
2020-07-10 17:00:00 30.5 14 Este 33 Este 0 -- -- 32
2020-07-10 16:00:00 29.8 12 Sudeste 34 Este 0 -- -- 37
2020-07-10 15:00:00 28.3 16 Este 38 Este 0 -- -- 43
2020-07-10 14:00:00 27.2 17 Este 33 Este 0 -- -- 47
2020-07-10 13:00:00 26.1 14 Este 29 Este 0 -- -- 49
2020-07-10 12:00:00 24.4 16 Este 30 Este 0 -- -- 56
2020-07-10 11:00:00 22.4 13 Este 28 Este 0 -- -- 64
2020-07-10 10:00:00 20.2 12 Este 30 Este 0 -- -- 73
2020-07-10 09:00:00 17.6 12 Este 24 Nordeste 0 -- -- 84
2020-07-10 08:00:00 15.8 5 Nordeste 14 Este 0 -- -- 89
2020-07-10 07:00:00 14.4 4 Norte 17 Este 0 -- -- 91
2020-07-10 06:00:00 14.6 9 Este 19 Nordeste 0 -- -- 90
2020-07-10 05:00:00 15.5 9 Nordeste 23 Este 0 -- -- 88
2020-07-10 04:00:00 16.1 11 Este 24 Este 0 -- -- 85
2020-07-10 03:00:00 16.1 9 Nordeste 20 Nordeste 0 -- -- 81
2020-07-10 02:00:00 16.2 3 Norte 14 Nordeste 0 -- -- 80
2020-07-10 01:00:00 16.9 7 Nordeste 17 Nordeste 0 -- -- 79
2020-07-10 00:00:00 17.6 9 Nordeste 19 Nordeste 0 -- -- 76
2020-07-09 23:00:00 18.7 3 Este 13 Sur 0 -- -- 75
2020-07-09 22:00:00 19.8 8 Sudeste 36 Este 0 -- -- 73
2020-07-09 21:00:00 20.2 17 Sudeste 32 Sudeste 0.6 -- -- 67
2020-07-09 20:00:00 24.2 19 Sudeste 58 Sudeste 0 -- -- 46
2020-07-09 19:00:00 33 9 Nordeste 22 Este 0 -- -- 27
2020-07-09 18:00:00 29.8 9 Este 24 Sudeste 0 -- -- 34
2020-07-09 17:00:00 33.6 10 Este 27 Norte 0 -- -- 26
2020-07-09 16:00:00 32.8 12 Este 27 Este 0 -- -- 27
2020-07-09 15:00:00 31.6 6 Nordeste 26 Este 0 -- -- 31
2020-07-09 14:00:00 31.3 9 Sudeste 24 Norte 0 -- -- 31
2020-07-09 13:00:00 30 12 Norte 22 Norte 0 -- -- 36
2020-07-09 12:00:00 28.1 9 Nordeste 21 Nordeste 0 -- -- 40
2020-07-09 11:00:00 25.4 10 Nordeste 15 Este 0 -- -- 48
2020-07-09 10:00:00 22.3 11 Este 19 Este 0 -- -- 56
2020-07-09 09:00:00 19.7 8 Nordeste 19 Norte 0 -- -- 65
2020-07-09 08:00:00 17.6 10 Nordeste 21 Nordeste 0 -- -- 69
2020-07-09 07:00:00 17.2 8 Nordeste 16 Nordeste 0 -- -- 70
2020-07-09 06:00:00 16.6 10 Nordeste 23 Nordeste 0 -- -- 74
2020-07-09 05:00:00 17.4 17 Nordeste 28 Nordeste 0 -- -- 69
2020-07-09 04:00:00 16.8 5 Este 14 Nordeste 0 -- -- 72
2020-07-09 03:00:00 17.9 6 Nordeste 10 Nordeste 0 -- -- 67
2020-07-09 02:00:00 19.3 3 Norte 8 Nordeste 0 -- -- 62
2020-07-09 01:00:00 20.8 3 Nordeste 19 Sudeste 0 -- -- 58
2020-07-09 00:00:00 21.6 13 Este 32 Nordeste 0 -- -- 56
2020-07-08 23:00:00 21.7 20 Nordeste 43 Nordeste 0.2 -- -- 55
2020-07-08 22:00:00 23.1 18 Nordeste 30 Nordeste 0.4 -- -- 55
2020-07-08 21:00:00 27.1 18 Norte 41 Este 0 -- -- 35
2020-07-08 20:00:00 28.1 17 Este 47 Este 0 -- -- 32
2020-07-08 19:00:00 31.9 27 Este 46 Este 0 -- -- 27
2020-07-08 18:00:00 33.1 19 Este 44 Este 0 -- -- 25
2020-07-08 17:00:00 32.9 15 Sudeste 40 Este 0 -- -- 25
2020-07-08 16:00:00 29.9 15 Este 27 Este 0 -- -- 33
2020-07-08 15:00:00 30.7 13 Sudeste 27 Sudeste 0 -- -- 28
2020-07-08 14:00:00 31.2 15 Sudeste 26 Sudeste 0 -- -- 27
2020-07-08 13:00:00 31.7 12 Sudeste 22 Sudeste 0 -- -- 25
2020-07-08 12:00:00 26 12 Este 19 Este 0 -- -- 41
2020-07-08 11:00:00 23.1 8 Nordeste 17 Nordeste 0 -- -- 48
2020-07-08 10:00:00 18.8 12 Nordeste 23 Este 0 -- -- 62
2020-07-08 09:00:00 18.1 13 Este 24 Este 0 -- -- 59
2020-07-08 08:00:00 16.9 12 Este 24 Nordeste 0 -- -- 61
2020-07-08 07:00:00 16.1 12 Nordeste 25 Norte 0 -- -- 63
2020-07-08 06:00:00 16.3 10 Nordeste 22 Nordeste 0 -- -- 63
2020-07-08 05:00:00 16.7 11 Nordeste 29 Nordeste 0 -- -- 62
2020-07-08 04:00:00 17.4 16 Nordeste 27 Nordeste 0 -- -- 60
2020-07-08 03:00:00 18.6 13 Nordeste 26 Nordeste 0 -- -- 57
2020-07-08 02:00:00 19.8 7 Norte 17 Norte 0 -- -- 53
2020-07-08 01:00:00 21.6 8 Nordeste 16 Nordeste 0 -- -- 47
2020-07-08 00:00:00 24 2 Nordeste 27 Sudeste 0 -- -- 39
2020-07-07 23:00:00 26.1 11 Sudeste 23 Este 0 -- -- 34
2020-07-07 22:00:00 26.1 0 Calma 7 Sudoeste 0 -- -- 44
2020-07-07 21:00:00 32.9 5 Oeste 17 Oeste 0 -- -- 23
2020-07-07 20:00:00 34.6 12 Oeste 22 Oeste 0 -- -- 18
2020-07-07 19:00:00 36.1 11 Oeste 18 Oeste 0 -- -- 22
2020-07-07 18:00:00 35 8 Nordeste 18 Este 0 -- -- 24
2020-07-07 17:00:00 34.2 9 Nordeste 23 Norte 0 -- -- 25
2020-07-07 16:00:00 33.9 10 Nordeste 24 Nordeste 0 -- -- 26
2020-07-07 15:00:00 32.7 11 Nordeste 24 Este 0 -- -- 27
2020-07-07 14:00:00 30.6 11 Nordeste 23 Este 0 -- -- 30
2020-07-07 13:00:00 27.6 12 Este 24 Nordeste 0 -- -- 34
2020-07-07 12:00:00 24.1 13 Este 23 Este 0 -- -- 41
2020-07-07 11:00:00 20.2 14 Este 23 Este 0 -- -- 50
2020-07-07 10:00:00 17.3 13 Este 30 Este 0 -- -- 57
2020-07-07 09:00:00 14.6 17 Este 32 Nordeste 0 -- -- 64
2020-07-07 08:00:00 12.9 15 Este 27 Este 0 -- -- 72
2020-07-07 07:00:00 11.8 14 Nordeste 26 Este 0 -- -- 77
2020-07-07 06:00:00 12.2 15 Este 25 Nordeste 0 -- -- 76
2020-07-07 05:00:00 12.7 13 Este 26 Este 0 -- -- 75
2020-07-07 04:00:00 13.3 13 Este 28 Este 0 -- -- 74
2020-07-07 03:00:00 14 14 Este 36 Este 0 -- -- 73
2020-07-07 02:00:00 14.7 19 Este 41 Este 0 -- -- 72
2020-07-07 01:00:00 15.6 17 Nordeste 38 Nordeste 0 -- -- 71
2020-07-07 00:00:00 17.2 17 Nordeste 36 Nordeste 0 -- -- 67
2020-07-06 23:00:00 19.2 16 Este 34 Nordeste 0 -- -- 63
2020-07-06 22:00:00 22 15 Este 37 Este 0 -- -- 53
2020-07-06 21:00:00 24.8 22 Este 37 Este 0 -- -- 45
2020-07-06 20:00:00 27.3 21 Este 43 Este 0 -- -- 40
2020-07-06 19:00:00 29.3 18 Este 35 Nordeste 0 -- -- 36
2020-07-06 18:00:00 30.1 14 Este 35 Este 0 -- -- 36
2020-07-06 17:00:00 30.3 15 Este 33 Este 0 -- -- 36
2020-07-06 16:00:00 29.7 14 Este 32 Nordeste 0 -- -- 38
2020-07-06 15:00:00 28.9 18 Este 31 Este 0 -- -- 39
2020-07-06 14:00:00 27.6 17 Este 33 Este 0 -- -- 45
2020-07-06 13:00:00 26 19 Este 36 Este 0 -- -- 49
2020-07-06 12:00:00 24.7 19 Este 36 Nordeste 0 -- -- 52
2020-07-06 11:00:00 22.8 19 Este 36 Este 0 -- -- 57
2020-07-06 10:00:00 20.1 21 Este 44 Este 0 -- -- 64
2020-07-06 09:00:00 18.3 22 Este 36 Este 0 -- -- 69
2020-07-06 08:00:00 17.1 14 Nordeste 27 Nordeste 0 -- -- 77
2020-07-06 07:00:00 15.8 9 Nordeste 17 Este 0 -- -- 82
2020-07-06 06:00:00 16.4 9 Nordeste 21 Este 0 -- -- 80
2020-07-06 05:00:00 17 9 Nordeste 23 Este 0 -- -- 77
2020-07-06 04:00:00 17.7 8 Nordeste 24 Este 0 -- -- 74
2020-07-06 03:00:00 18.9 12 Nordeste 23 Nordeste 0 -- -- 69
2020-07-06 02:00:00 20.2 13 Este 30 Este 0 -- -- 67
2020-07-06 01:00:00 21.4 13 Este 37 Este 0 -- -- 66
2020-07-06 00:00:00 23.5 23 Este 42 Este 0 -- -- 60
2020-07-05 23:00:00 26.3 22 Este 39 Este 0 -- -- 51
2020-07-05 22:00:00 28.1 5 Este 9 Este 0 -- -- 35
2020-07-05 21:00:00 31.7 4 Nordeste 12 Norte 0 -- -- 30
2020-07-05 20:00:00 32.7 6 Nordeste 14 Este 0 -- -- 27
2020-07-05 19:00:00 32.9 3 Sudeste 17 Nordeste 0 -- -- 27
2020-07-05 18:00:00 33 5 Este 16 Noroeste 0 -- -- 27
2020-07-05 17:00:00 32.7 6 Norte 21 Noroeste 0 -- -- 28
2020-07-05 16:00:00 32 8 Este 15 Norte 0 -- -- 29
2020-07-05 15:00:00 31.3 6 Nordeste 20 Norte 0 -- -- 31
2020-07-05 14:00:00 30.5 8 Norte 20 Este 0 -- -- 32
2020-07-05 13:00:00 29.4 12 Nordeste 22 Este 0 -- -- 33
2020-07-05 12:00:00 27.9 11 Este 24 Este 0 -- -- 35
2020-07-05 11:00:00 25.1 13 Este 27 Este 0 -- -- 41
2020-07-05 10:00:00 22.3 11 Este 24 Este 0 -- -- 48
2020-07-05 09:00:00 18.6 12 Este 19 Este 0 -- -- 59
2020-07-05 08:00:00 15.4 8 Nordeste 15 Nordeste 0 -- -- 71
2020-07-05 07:00:00 14.1 9 Nordeste 15 Nordeste 0 -- -- 74
2020-07-05 06:00:00 14.5 9 Nordeste 16 Nordeste 0 -- -- 71
2020-07-05 05:00:00 15 7 Nordeste 13 Nordeste 0 -- -- 67
2020-07-05 04:00:00 15.9 6 Nordeste 14 Norte 0 -- -- 63
2020-07-05 03:00:00 16.9 5 Nordeste 13 Nordeste 0 -- -- 59
2020-07-05 02:00:00 18.3 6 Nordeste 24 Este 0 -- -- 53
2020-07-05 01:00:00 20 15 Este 30 Este 0 -- -- 50
2020-07-05 00:00:00 22 17 Este 33 Nordeste 0 -- -- 45
2020-07-04 23:00:00 23.6 22 Este 38 Sudeste 0 -- -- 40
2020-07-04 22:00:00 25.7 8 Este 15 Este 0 -- -- 29
2020-07-04 21:00:00 29.1 5 Nordeste 13 Este 0 -- -- 25
2020-07-04 20:00:00 30.2 7 Nordeste 17 Nordeste 0 -- -- 23
2020-07-04 19:00:00 30.8 8 Nordeste 16 Este 0 -- -- 23
2020-07-04 18:00:00 30.2 6 Nordeste 17 Noroeste 0 -- -- 25
2020-07-04 17:00:00 30.2 9 Norte 18 Noroeste 0 -- -- 25
2020-07-04 16:00:00 29.7 11 Noroeste 19 Norte 0 -- -- 26
2020-07-04 15:00:00 28 10 Nordeste 21 Nordeste 0 -- -- 26
2020-07-04 14:00:00 26.7 7 Norte 22 Oeste 0 -- -- 31
2020-07-04 13:00:00 25.1 8 Norte 15 Norte 0 -- -- 35
2020-07-04 12:00:00 23.2 6 Este 21 Nordeste 0 -- -- 35
2020-07-04 11:00:00 20.9 10 Este 21 Este 0 -- -- 37
2020-07-04 10:00:00 17.5 8 Nordeste 16 Este 0 -- -- 52
2020-07-04 09:00:00 14.2 8 Este 13 Este 0 -- -- 72
2020-07-04 08:00:00 11.8 4 Nordeste 10 Nordeste 0 -- -- 82
2020-07-04 07:00:00 9.8 3 Nordeste 8 Nordeste 0 -- -- 87
2020-07-04 06:00:00 10.5 6 Nordeste 15 Nordeste 0 -- -- 84
2020-07-04 05:00:00 11.3 8 Nordeste 17 Nordeste 0 -- -- 83
2020-07-04 04:00:00 12.1 9 Nordeste 17 Este 0 -- -- 80
2020-07-04 03:00:00 12.9 10 Este 18 Este 0 -- -- 77
2020-07-04 02:00:00 14.3 12 Nordeste 18 Nordeste 0 -- -- 72
2020-07-04 01:00:00 15.4 6 Norte 12 Norte 0 -- -- 62
2020-07-04 00:00:00 14.9 0 Calma 10 Sur 0 -- -- 49
2020-07-03 23:00:00 17.6 5 Sur 13 Este 0 -- -- 42
2020-07-03 22:00:00 21.7 6 Este 17 Este 0 -- -- 33
2020-07-03 21:00:00 24.3 10 Este 18 Este 0 -- -- 30
2020-07-03 20:00:00 25.8 7 Nordeste 18 Norte 0 -- -- 29
2020-07-03 19:00:00 26.2 9 Nordeste 20 Nordeste 0 -- -- 28
2020-07-03 18:00:00 26.1 6 Norte 23 Norte 0 -- -- 30
2020-07-03 17:00:00 25.6 10 Nordeste 22 Norte 0 -- -- 29
2020-07-03 16:00:00 25 10 Nordeste 24 Este 0 -- -- 31
2020-07-03 15:00:00 24.3 9 Nordeste 24 Nordeste 0 -- -- 36
2020-07-03 14:00:00 22.7 10 Este 25 Este 0 -- -- 37
2020-07-03 13:00:00 21.4 12 Nordeste 26 Nordeste 0 -- -- 44
2020-07-03 12:00:00 19.8 14 Este 29 Nordeste 0 -- -- 48
2020-07-03 11:00:00 17.8 17 Este 31 Este 0 -- -- 53
2020-07-03 10:00:00 16 18 Este 32 Nordeste 0 -- -- 59
2020-07-03 09:00:00 13.6 15 Este 32 Este 0 -- -- 70
2020-07-03 08:00:00 11.5 12 Nordeste 22 Nordeste 0 -- -- 81
2020-07-03 07:00:00 9.5 10 Nordeste 18 Nordeste 0 -- -- 86
2020-07-03 06:00:00 9.9 9 Este 15 Nordeste 0 -- -- 84
2020-07-03 05:00:00 10.5 7 Este 20 Este 0 -- -- 82
2020-07-03 04:00:00 11.1 11 Este 23 Este 0 -- -- 81
2020-07-03 03:00:00 11.7 12 Este 35 Nordeste 0 -- -- 79
2020-07-03 02:00:00 12.3 18 Este 37 Este 0 -- -- 77
2020-07-03 01:00:00 12.5 17 Este 35 Nordeste 0 -- -- 77
2020-07-03 00:00:00 13.2 17 Este 39 Este 0 -- -- 72
2020-07-02 23:00:00 14.3 25 Este 43 Este 0 -- -- 67
2020-07-02 22:00:00 16.3 23 Este 45 Este 0 -- -- 64
2020-07-02 21:00:00 20.4 22 Este 44 Este 0 -- -- 53
2020-07-02 20:00:00 26.4 14 Noroeste 26 Oeste 0 -- -- 25
2020-07-02 19:00:00 27.3 13 Oeste 31 Oeste 0 -- -- 27
2020-07-02 18:00:00 27.7 15 Oeste 32 Oeste 0 -- -- 27
2020-07-02 17:00:00 27.7 17 Oeste 36 Oeste 0 -- -- 27
2020-07-02 16:00:00 27.1 15 Oeste 33 Oeste 0 -- -- 32
2020-07-02 15:00:00 26 15 Oeste 31 Oeste 0 -- -- 36
2020-07-02 14:00:00 24.9 14 Oeste 26 Oeste 0 -- -- 42
2020-07-02 13:00:00 24.3 11 Oeste 21 Oeste 0 -- -- 45
2020-07-02 12:00:00 22.5 7 Oeste 18 Noroeste 0 -- -- 50
2020-07-02 11:00:00 21.4 6 Oeste 18 Noroeste 0 -- -- 53
2020-07-02 10:00:00 19.8 9 Norte 16 Norte 0 -- -- 59
2020-07-02 09:00:00 17.8 4 Oeste 6 Oeste 0 -- -- 75
2020-07-02 08:00:00 13.2 2 Sudoeste 4 Sudoeste 0 -- -- 88
2020-07-02 07:00:00 9.7 0 Calma 7 Sudeste 0 -- -- 88
2020-07-02 06:00:00 10.8 0 Calma 4 Este 0 -- -- 87
2020-07-02 05:00:00 11.6 4 Sur 6 Sur 0 -- -- 86
2020-07-02 04:00:00 13.1 0 Calma 5 Sudeste 0 -- -- 82
2020-07-02 03:00:00 14.9 3 Este 6 Este 0 -- -- 83
2020-07-02 02:00:00 16.1 3 Nordeste 12 Este 0 -- -- 80
2020-07-02 01:00:00 17.4 6 Nordeste 20 Este 0 -- -- 77
2020-07-02 00:00:00 18.9 8 Nordeste 18 Norte 0 -- -- 71
2020-07-01 23:00:00 22.3 11 Norte 22 Norte 0 -- -- 49
2020-07-01 22:00:00 24.5 12 Norte 27 Noroeste 0 -- -- 42
2020-07-01 21:00:00 27.6 19 Noroeste 35 Noroeste 0 -- -- 34
2020-07-01 20:00:00 29.3 23 Noroeste 39 Noroeste 0 -- -- 26
2020-07-01 19:00:00 30.5 26 Oeste 40 Noroeste 0 -- -- 25
2020-07-01 18:00:00 31.7 26 Noroeste 45 Oeste 0 -- -- 24
2020-07-01 17:00:00 32.1 24 Oeste 45 Oeste 0 -- -- 23
2020-07-01 16:00:00 32 23 Oeste 40 Oeste 0 -- -- 25
2020-07-01 15:00:00 31.7 18 Oeste 34 Oeste 0 -- -- 28
2020-07-01 14:00:00 30.2 18 Oeste 31 Oeste 0 -- -- 33
2020-07-01 13:00:00 28.8 18 Oeste 29 Oeste 0 -- -- 36
2020-07-01 12:00:00 27.1 13 Sudoeste 21 Sudoeste 0 -- -- 51
2020-07-01 11:00:00 25.8 11 Oeste 20 Oeste 0 -- -- 56
2020-07-01 10:00:00 23.5 8 Noroeste 18 Noroeste 0 -- -- 62
2020-07-01 09:00:00 20.5 5 Oeste 9 Oeste 0 -- -- 70
2020-07-01 08:00:00 16.3 3 Oeste 6 Sudoeste 0 -- -- 81
2020-07-01 07:00:00 13.9 0 Calma 6 Oeste 0 -- -- 82
2020-07-01 06:00:00 14.9 3 Sudeste 4 Sur 0 -- -- 83
2020-07-01 05:00:00 16.2 2 Sudeste 5 Sudoeste 0 -- -- 81
2020-07-01 04:00:00 18.6 2 Noroeste 10 Nordeste 0 -- -- 72
2020-07-01 03:00:00 19.9 5 Este 9 Este 0 -- -- 70
2020-07-01 02:00:00 20.7 4 Sudeste 6 Sudeste 0 -- -- 64
2020-07-01 01:00:00 21.6 4 Este 12 Norte 0 -- -- 59
2020-07-01 00:00:00 22.7 6 Nordeste 16 Norte 0 -- -- 54
2020-06-30 23:00:00 25.8 8 Norte 24 Norte 0 -- -- 43
2020-06-30 22:00:00 26.3 9 Noroeste 16 Oeste 0 -- -- 29
2020-06-30 21:00:00 30.6 14 Oeste 33 Noroeste 0 -- -- 21
2020-06-30 20:00:00 33.8 15 Oeste 43 Oeste 0 -- -- 23
2020-06-30 19:00:00 33.5 17 Oeste 38 Sudoeste 0 -- -- 25
2020-06-30 18:00:00 34.1 12 Oeste 39 Oeste 0 -- -- 24
2020-06-30 17:00:00 33.8 8 Oeste 27 Oeste 0 -- -- 26
2020-06-30 16:00:00 34 9 Noroeste 31 Noroeste 0 -- -- 26
2020-06-30 15:00:00 33.5 9 Sudoeste 27 Oeste 0 -- -- 28
2020-06-30 14:00:00 31.5 6 Norte 19 Norte 0 -- -- 33
2020-06-30 13:00:00 29.7 8 Norte 17 Nordeste 0 -- -- 36
2020-06-30 12:00:00 27.6 9 Este 19 Nordeste 0 -- -- 40
2020-06-30 11:00:00 24.6 13 Este 23 Este 0 -- -- 42
2020-06-30 10:00:00 21.9 13 Este 25 Nordeste 0 -- -- 43
2020-06-30 09:00:00 18.5 14 Nordeste 23 Este 0 -- -- 53
2020-06-30 08:00:00 15.5 13 Nordeste 19 Este 0 -- -- 65
2020-06-30 07:00:00 14 9 Nordeste 18 Nordeste 0 -- -- 69
2020-06-30 06:00:00 14.8 10 Nordeste 17 Este 0 -- -- 63
2020-06-30 05:00:00 15.3 7 Nordeste 21 Nordeste 0 -- -- 63
2020-06-30 04:00:00 16 6 Nordeste 15 Norte 0 -- -- 67
2020-06-30 03:00:00 17.7 5 Nordeste 14 Norte 0 -- -- 66
2020-06-30 02:00:00 18.9 6 Nordeste 17 Nordeste 0 -- -- 71
2020-06-30 01:00:00 20.1 9 Este 29 Este 0 -- -- 66
2020-06-30 00:00:00 21.6 13 Este 31 Este 0 -- -- 62
2020-06-29 23:00:00 23.4 16 Este 29 Este 0 -- -- 55
2020-06-29 22:00:00 26.6 8 Nordeste 19 Norte 0 -- -- 44
2020-06-29 21:00:00 30 9 Norte 14 Noroeste 0 -- -- 34
2020-06-29 20:00:00 31.2 6 Norte 22 Norte 0 -- -- 32
2020-06-29 19:00:00 31.6 5 Sudoeste 18 Norte 0 -- -- 33
2020-06-29 18:00:00 31.1 5 Norte 14 Noroeste 0 -- -- 34
2020-06-29 17:00:00 30 6 Este 16 Nordeste 0 -- -- 36
2020-06-29 16:00:00 30 6 Noroeste 32 Oeste 0 -- -- 36
2020-06-29 15:00:00 28.8 5 Sudoeste 13 Noroeste 0 -- -- 39
2020-06-29 14:00:00 27.5 7 Norte 16 Norte 0 -- -- 43
2020-06-29 13:00:00 25.8 8 Norte 24 Norte 0 -- -- 50
2020-06-29 12:00:00 23.9 7 Nordeste 16 Este 0 -- -- 57
2020-06-29 11:00:00 22.3 7 Este 15 Este 0 -- -- 62
2020-06-29 10:00:00 19.8 9 Este 20 Este 0 -- -- 71
2020-06-29 09:00:00 17.8 9 Este 17 Este 0 -- -- 79
2020-06-29 08:00:00 15 5 Nordeste 9 Nordeste 0 -- -- 85
2020-06-29 07:00:00 13.6 5 Nordeste 10 Nordeste 0 -- -- 89
2020-06-29 06:00:00 13.9 4 Nordeste 10 Este 0 -- -- 87
2020-06-29 05:00:00 14.8 5 Nordeste 9 Nordeste 0 -- -- 85
2020-06-29 04:00:00 15.3 4 Nordeste 12 Nordeste 0 -- -- 82
2020-06-29 03:00:00 16.4 9 Nordeste 16 Nordeste 0 -- -- 79
2020-06-29 02:00:00 17.4 8 Nordeste 18 Este 0 -- -- 76
2020-06-29 01:00:00 19.4 4 Este 17 Norte 0 -- -- 68
2020-06-29 00:00:00 21.1 8 Norte 28 Norte 0 -- -- 57
2020-06-28 23:00:00 22.4 16 Noroeste 27 Noroeste 0 -- -- 55
2020-06-28 22:00:00 25.3 15 Noroeste 24 Noroeste 0 -- -- 49
2020-06-28 21:00:00 27.7 9 Oeste 29 Oeste 0 -- -- 41
2020-06-28 20:00:00 30.5 10 Oeste 23 Oeste 0 -- -- 35
2020-06-28 19:00:00 30.5 12 Oeste 24 Oeste 0 -- -- 34
2020-06-28 18:00:00 30.9 11 Noroeste 24 Oeste 0 -- -- 33
2020-06-28 17:00:00 30.2 13 Oeste 27 Noroeste 0 -- -- 35
2020-06-28 16:00:00 29.5 13 Noroeste 28 Noroeste 0 -- -- 36
2020-06-28 15:00:00 28.4 11 Oeste 24 Oeste 0 -- -- 37
2020-06-28 14:00:00 27 12 Oeste 22 Noroeste 0 -- -- 40
2020-06-28 13:00:00 25.1 11 Sudoeste 24 Noroeste 0 -- -- 46
2020-06-28 12:00:00 23.7 7 Noroeste 20 Noroeste 0 -- -- 51
2020-06-28 11:00:00 21.8 6 Sudoeste 15 Sudoeste 0 -- -- 59
2020-06-28 10:00:00 20.1 4 Oeste 13 Noroeste 0 -- -- 63
2020-06-28 09:00:00 17.9 0 Calma 5 Sudoeste 0 -- -- 75
2020-06-28 08:00:00 13.8 0 Calma 3 Sudoeste 0 -- -- 88
2020-06-28 07:00:00 10.5 4 Sur 7 Sur 0 -- -- 87
2020-06-28 06:00:00 11 0 Calma 7 Sur 0 -- -- 86
2020-06-28 05:00:00 11.8 0 Calma 5 Sudeste 0 -- -- 85
2020-06-28 04:00:00 12.6 0 Calma 5 Sur 0 -- -- 83
2020-06-28 03:00:00 13.6 0 Calma 4 Sudoeste 0 -- -- 84
2020-06-28 02:00:00 14.6 3 Sur 5 Sur 0 -- -- 79
2020-06-28 01:00:00 16.3 3 Sudoeste 6 Oeste 0 -- -- 71
2020-06-28 00:00:00 18.7 4 Noroeste 14 Noroeste 0 -- -- 67
2020-06-27 23:00:00 21.3 9 Noroeste 17 Oeste 0 -- -- 59
2020-06-27 22:00:00 22.5 10 Oeste 27 Noroeste 0 -- -- 56
2020-06-27 21:00:00 24.5 17 Noroeste 29 Oeste 0 -- -- 49
2020-06-27 20:00:00 26.6 17 Oeste 27 Oeste 0 -- -- 44
2020-06-27 19:00:00 27.9 12 Oeste 32 Oeste 0 -- -- 41
2020-06-27 18:00:00 28.2 14 Oeste 31 Oeste 0 -- -- 39
2020-06-27 17:00:00 27.8 14 Oeste 30 Oeste 0 -- -- 41
2020-06-27 16:00:00 27.1 17 Oeste 34 Oeste 0 -- -- 44
2020-06-27 15:00:00 26.5 21 Oeste 33 Oeste 0 -- -- 44
2020-06-27 14:00:00 25.4 19 Oeste 29 Oeste 0 -- -- 47
2020-06-27 13:00:00 23.5 14 Oeste 26 Sudoeste 0 -- -- 51
2020-06-27 12:00:00 21 15 Oeste 27 Sudoeste 0 -- -- 59
2020-06-27 11:00:00 19.9 10 Oeste 22 Oeste 0 -- -- 63
2020-06-27 10:00:00 18 13 Oeste 28 Oeste 0 -- -- 72
2020-06-27 09:00:00 16.8 13 Oeste 21 Oeste 0 -- -- 78
2020-06-27 08:00:00 14.8 9 Sudoeste 15 Sudoeste 0 -- -- 85
2020-06-27 07:00:00 12.6 5 Sudoeste 9 Sudoeste 0 -- -- 88
2020-06-27 06:00:00 13.2 6 Sudoeste 9 Sudoeste 0 -- -- 87
2020-06-27 05:00:00 13.6 4 Sudoeste 12 Oeste 0 -- -- 83
2020-06-27 04:00:00 14.8 7 Oeste 13 Oeste 0 -- -- 82
2020-06-27 03:00:00 15.4 4 Oeste 14 Oeste 0 -- -- 80
2020-06-27 02:00:00 15.2 8 Oeste 14 Oeste 0 -- -- 79
2020-06-27 01:00:00 15.7 5 Oeste 9 Sudoeste 0 -- -- 73
2020-06-27 00:00:00 16.9 4 Sudoeste 8 Oeste 0 -- -- 68
2020-06-26 23:00:00 18.7 4 Sudoeste 15 Noroeste 0 -- -- 59
2020-06-26 22:00:00 21.4 13 Oeste 29 Oeste 0 -- -- 49
2020-06-26 21:00:00 24.3 17 Oeste 31 Oeste 0 -- -- 42
2020-06-26 20:00:00 25.7 18 Oeste 36 Oeste 0 -- -- 37
2020-06-26 19:00:00 26.3 23 Oeste 40 Oeste 0 -- -- 34
2020-06-26 18:00:00 25.6 21 Oeste 34 Oeste 0 -- -- 32
2020-06-26 17:00:00 27.2 19 Oeste 37 Oeste 0 -- -- 27
2020-06-26 16:00:00 27.3 21 Oeste 38 Sudoeste 0 -- -- 32
2020-06-26 15:00:00 26 17 Oeste 33 Oeste 0 -- -- 38
2020-06-26 14:00:00 24.1 18 Oeste 37 Oeste 0 -- -- 49
2020-06-26 13:00:00 23.3 17 Oeste 28 Oeste 0 -- -- 53
2020-06-26 12:00:00 23.9 14 Oeste 24 Oeste 0 -- -- 54
2020-06-26 11:00:00 22.1 14 Oeste -- -- -- -- -- 65
2020-06-26 10:00:00 -- -- -- -- -- -- -- -- --
2020-06-26 09:00:00 -- -- -- -- -- -- -- -- --
2020-06-26 08:00:00 -- -- -- -- -- -- -- -- --
2020-06-26 07:00:00 -- -- -- -- -- -- -- -- --
2020-06-26 06:00:00 -- -- -- -- -- -- -- -- --
2020-06-26 05:00:00 -- -- -- -- -- -- -- -- --
2020-06-26 04:00:00 -- -- -- -- -- -- -- -- --
2020-06-26 03:00:00 -- -- -- -- -- -- -- -- --
2020-06-26 02:00:00 -- -- -- -- -- -- -- -- --
2020-06-26 01:00:00 -- -- -- -- -- -- -- -- --
2020-06-26 00:00:00 -- -- -- -- -- -- -- -- --
2020-06-25 23:00:00 -- -- -- -- -- -- -- -- --
2020-06-25 22:00:00 -- -- -- -- -- -- -- -- --
2020-06-25 21:00:00 -- -- -- -- -- -- -- -- --
2020-06-25 20:00:00 -- -- -- -- -- -- -- -- --
2020-06-25 19:00:00 -- -- -- -- -- -- -- -- --
2020-06-25 18:00:00 -- -- -- -- -- -- -- -- --
2020-06-25 17:00:00 -- -- -- -- -- -- -- -- --
2020-06-25 16:00:00 -- -- -- -- -- -- -- -- --
2020-06-25 15:00:00 -- -- -- -- -- -- -- -- --
2020-06-25 14:00:00 -- -- -- -- -- -- -- -- --
2020-06-25 13:00:00 -- -- -- -- -- -- -- -- --
2020-06-25 12:00:00 -- -- -- -- -- -- -- -- --
2020-06-25 11:00:00 -- -- -- -- -- -- -- -- --
2020-06-25 10:00:00 -- -- -- -- -- -- -- -- --
2020-06-25 09:00:00 -- -- -- -- -- -- -- -- --
2020-06-25 08:00:00 -- -- -- -- -- -- -- -- --
2020-06-25 07:00:00 -- -- -- -- -- -- -- -- --
2020-06-25 06:00:00 -- -- -- -- -- -- -- -- --
2020-06-25 05:00:00 -- -- -- -- -- -- -- -- --
2020-06-25 04:00:00 -- -- -- -- -- -- -- -- --
2020-06-25 03:00:00 -- -- -- -- -- -- -- -- --
2020-06-25 02:00:00 -- -- -- -- -- -- -- -- --
2020-06-25 01:00:00 -- -- -- -- -- -- -- -- --
2020-06-25 00:00:00 -- -- -- -- -- -- -- -- --
2020-06-24 23:00:00 -- -- -- -- -- -- -- -- --
2020-06-24 22:00:00 -- -- -- -- -- -- -- -- --
2020-06-24 21:00:00 -- -- -- -- -- -- -- -- --
2020-06-24 20:00:00 -- -- -- -- -- -- -- -- --
2020-06-24 19:00:00 -- -- -- -- -- -- -- -- --
2020-06-24 18:00:00 -- -- -- -- -- -- -- -- --
2020-06-24 17:00:00 -- -- -- -- -- -- -- -- --
2020-06-24 16:00:00 -- -- -- -- -- -- -- -- --
2020-06-24 15:00:00 -- -- -- -- -- -- -- -- --
2020-06-24 14:00:00 -- -- -- -- -- -- -- -- --
2020-06-24 13:00:00 -- -- -- -- -- -- -- -- --
2020-06-24 12:00:00 -- -- -- -- -- -- -- -- --
2020-06-24 11:00:00 -- -- -- -- -- -- -- -- --
2020-06-24 10:00:00 -- -- -- -- -- -- -- -- --
2020-06-24 09:00:00 -- -- -- -- -- -- -- -- --
2020-06-24 08:00:00 -- -- -- -- -- -- -- -- --
2020-06-24 07:00:00 -- -- -- -- -- -- -- -- --
2020-06-24 06:00:00 -- -- -- -- -- -- -- -- --
2020-06-24 05:00:00 -- -- -- -- -- -- -- -- --
2020-06-24 04:00:00 -- -- -- -- -- -- -- -- --
2020-06-24 03:00:00 -- -- -- -- -- -- -- -- --
2020-06-24 02:00:00 -- -- -- -- -- -- -- -- --
2020-06-24 01:00:00 -- -- -- -- -- -- -- -- --
2020-06-24 00:00:00 -- -- -- -- -- -- -- -- --
2020-06-23 23:00:00 -- -- -- -- -- -- -- -- --
2020-06-23 22:00:00 27.7 7 Sur 75 Noroeste 0.2 -- -- 32
2020-06-23 21:00:00 30.7 11 Norte 45 Noroeste 0 -- -- 23
2020-06-23 20:00:00 31.6 2 Oeste 12 Oeste 0 -- -- 34
2020-06-23 19:00:00 33.4 5 Oeste 17 Oeste 0 -- -- 26
2020-06-23 18:00:00 36 8 Noroeste 23 Noroeste 0 -- -- 19
2020-06-23 17:00:00 35.5 9 Sur 23 Oeste 0 -- -- 21
2020-06-23 16:00:00 35.1 7 Noroeste 27 Sudoeste 0 -- -- 21
2020-06-23 15:00:00 34.4 10 Oeste 19 Oeste 0 -- -- 23
2020-06-23 14:00:00 32.8 6 Sudoeste 13 Noroeste 0 -- -- 27
2020-06-23 13:00:00 31 6 Norte 15 Norte 0 -- -- 32
2020-06-23 12:00:00 28.1 4 Norte 13 Norte 0 -- -- 38
2020-06-23 11:00:00 25.4 6 Norte 14 Nordeste 0 -- -- 44
2020-06-23 10:00:00 22.2 8 Nordeste 17 Nordeste 0 -- -- 52
2020-06-23 09:00:00 18.7 10 Nordeste 18 Nordeste 0 -- -- 61
2020-06-23 08:00:00 16 9 Nordeste 19 Este 0 -- -- 68
2020-06-23 07:00:00 14.5 10 Nordeste 19 Nordeste 0 -- -- 72
2020-06-23 06:00:00 15.1 10 Nordeste 28 Nordeste 0 -- -- 71
2020-06-23 05:00:00 16.1 12 Nordeste 22 Nordeste 0 -- -- 68
2020-06-23 04:00:00 16.5 12 Nordeste 21 Nordeste 0 -- -- 68
2020-06-23 03:00:00 17.1 11 Nordeste 19 Nordeste 0 -- -- 66
2020-06-23 02:00:00 18.7 3 Nordeste 15 Este 0 -- -- 60
2020-06-23 01:00:00 20.6 9 Nordeste 38 Este 0 -- -- 54
2020-06-23 00:00:00 22.4 19 Este 34 Este 0 -- -- 46
2020-06-22 23:00:00 24.6 16 Este 31 Este 0 -- -- 38
2020-06-22 22:00:00 26 14 Este 29 Este 0 -- -- 32
2020-06-22 21:00:00 29.1 15 Este 27 Este 0 -- -- 26
2020-06-22 20:00:00 31 11 Este 30 Sudeste 0 -- -- 24
2020-06-22 19:00:00 31.9 6 Este 24 Este 0 -- -- 22
2020-06-22 18:00:00 31.9 13 Este 49 Este 0 -- -- 20
2020-06-22 17:00:00 31.6 13 Este 23 Nordeste 0 -- -- 21
2020-06-22 16:00:00 30.9 13 Este 27 Nordeste 0 -- -- 24
2020-06-22 15:00:00 29.7 10 Nordeste 27 Este 0 -- -- 26
2020-06-22 14:00:00 28.2 13 Este 27 Sudeste 0 -- -- 31
2020-06-22 13:00:00 26.3 13 Este 28 Nordeste 0 -- -- 37
2020-06-22 12:00:00 24.5 14 Este 28 Este 0 -- -- 41
2020-06-22 11:00:00 21.8 13 Este 23 Este 0 -- -- 54
2020-06-22 10:00:00 18.8 13 Este 26 Este 0 -- -- 69
2020-06-22 09:00:00 16.3 15 Este 31 Este 0 -- -- 78
2020-06-22 08:00:00 14.4 11 Nordeste 20 Nordeste 0 -- -- 85
2020-06-22 07:00:00 12.8 8 Nordeste 15 Nordeste 0 -- -- 89
2020-06-22 06:00:00 13.1 5 Nordeste 12 Este 0 -- -- 87
2020-06-22 05:00:00 13.8 5 Nordeste 20 Este 0 -- -- 85
2020-06-22 04:00:00 14.6 8 Nordeste 22 Este 0 -- -- 83
2020-06-22 03:00:00 15.1 12 Nordeste 24 Este 0 -- -- 82
2020-06-22 02:00:00 15.7 14 Nordeste 35 Este 0 -- -- 80
2020-06-22 01:00:00 16.4 17 Nordeste 38 Este 0 -- -- 76
2020-06-22 00:00:00 17.8 16 Este 38 Este 0 -- -- 69
2020-06-21 23:00:00 19.8 17 Este 39 Este 0 -- -- 63
2020-06-21 22:00:00 25 8 Este 28 Nordeste 0 -- -- 46
2020-06-21 21:00:00 28.2 5 Norte 15 Nordeste 0 -- -- 35
2020-06-21 20:00:00 29.3 7 Norte 18 Noroeste 0 -- -- 31
2020-06-21 19:00:00 30 7 Norte 16 Norte 0 -- -- 27
2020-06-21 18:00:00 30 9 Oeste 24 Noroeste 0 -- -- 25
2020-06-21 17:00:00 29.5 8 Norte 22 Norte 0 -- -- 27
2020-06-21 16:00:00 28.7 10 Oeste 25 Norte 0 -- -- 27
2020-06-21 15:00:00 27.9 10 Norte 23 Noroeste 0 -- -- 26
2020-06-21 14:00:00 26.6 13 Noroeste 24 Noroeste 0 -- -- 30
2020-06-21 13:00:00 25 9 Norte 22 Noroeste 0 -- -- 34
2020-06-21 12:00:00 23.5 8 Noroeste 18 Oeste 0 -- -- 38
2020-06-21 11:00:00 21.4 8 Oeste 17 Oeste 0 -- -- 46
2020-06-21 10:00:00 18.7 9 Oeste 14 Oeste 0 -- -- 58
2020-06-21 09:00:00 15.9 6 Oeste 11 Oeste 0 -- -- 73
2020-06-21 08:00:00 11.4 3 Noroeste 5 Noroeste 0 -- -- 83
2020-06-21 07:00:00 8.1 2 Oeste 5 Oeste 0 -- -- 85
2020-06-21 06:00:00 8.7 4 Oeste 6 Noroeste 0 -- -- 83
2020-06-21 05:00:00 9.5 3 Noroeste 7 Sur 0 -- -- 81
2020-06-21 04:00:00 10.1 0 Calma 4 Noroeste 0 -- -- 81
2020-06-21 03:00:00 11.3 0 Calma 6 Sur 0 -- -- 75
2020-06-21 02:00:00 12.2 4 Oeste 9 Noroeste 0 -- -- 70
2020-06-21 01:00:00 13.4 2 Oeste 6 Sur 0 -- -- 69
2020-06-21 00:00:00 15.4 0 Calma 9 Sudoeste 0 -- -- 59
2020-06-20 23:00:00 17.4 4 Oeste 9 Noroeste 0 -- -- 55
2020-06-20 22:00:00 22 4 Noroeste 23 Noroeste 0 -- -- 41
2020-06-20 21:00:00 26.1 12 Oeste 28 Noroeste 0 -- -- 34
2020-06-20 20:00:00 27.8 15 Noroeste 31 Oeste 0 -- -- 29
2020-06-20 19:00:00 28.7 21 Oeste 32 Oeste 0 -- -- 28
2020-06-20 18:00:00 29.2 15 Oeste 32 Oeste 0 -- -- 28
2020-06-20 17:00:00 29.1 13 Oeste 25 Noroeste 0 -- -- 27
2020-06-20 16:00:00 28.2 13 Oeste 23 Oeste 0 -- -- 26
2020-06-20 15:00:00 27.2 13 Oeste 24 Oeste 0 -- -- 28
2020-06-20 14:00:00 25.8 6 Sudoeste 17 Sur 0 -- -- 34
2020-06-20 13:00:00 24 6 Sudeste 15 Sur 0 -- -- 38
2020-06-20 12:00:00 22.4 5 Norte 13 Norte 0 -- -- 40
2020-06-20 11:00:00 20.3 4 Nordeste 12 Este 0 -- -- 45
2020-06-20 10:00:00 17.7 6 Nordeste 15 Este 0 -- -- 51
2020-06-20 09:00:00 14.9 0 Calma 5 Este 0 -- -- 66
2020-06-20 08:00:00 10.6 3 Sudeste 7 Sudeste 0 -- -- 78
2020-06-20 07:00:00 8.5 3 Este 8 Nordeste 0 -- -- 82
2020-06-20 06:00:00 9.5 5 Nordeste 10 Nordeste 0 -- -- 78
2020-06-20 05:00:00 9.8 3 Nordeste 9 Nordeste 0 -- -- 75
2020-06-20 04:00:00 11.2 5 Este 13 Nordeste 0 -- -- 70
2020-06-20 03:00:00 12.9 8 Nordeste 15 Este 0 -- -- 63
2020-06-20 02:00:00 13.6 5 Nordeste 17 Nordeste 0 -- -- 61
2020-06-20 01:00:00 14.9 4 Nordeste 14 Nordeste 0 -- -- 63
2020-06-20 00:00:00 14.7 0 Calma 6 Sudoeste 0 -- -- 63
2020-06-19 23:00:00 16.8 4 Sudoeste 9 Sudoeste 0 -- -- 55
2020-06-19 22:00:00 21.3 4 Sudoeste 17 Oeste 0 -- -- 45
2020-06-19 21:00:00 24.5 11 Oeste 27 Oeste 0 -- -- 36
2020-06-19 20:00:00 26.4 12 Oeste 27 Oeste 0 -- -- 29
2020-06-19 19:00:00 27.1 12 Oeste 26 Oeste 0 -- -- 28
2020-06-19 18:00:00 27 13 Noroeste 23 Oeste 0 -- -- 28
2020-06-19 17:00:00 26.5 13 Noroeste 29 Noroeste 0 -- -- 27
2020-06-19 16:00:00 25.9 15 Noroeste 26 Noroeste 0 -- -- 27
2020-06-19 15:00:00 24.5 12 Noroeste 25 Oeste 0 -- -- 29
2020-06-19 14:00:00 23.3 17 Oeste 30 Oeste 0 -- -- 33
2020-06-19 13:00:00 22.1 13 Oeste 23 Oeste 0 -- -- 42
2020-06-19 12:00:00 20.3 9 Oeste 19 Oeste 0 -- -- 50
2020-06-19 11:00:00 18.1 5 Oeste 11 Sudoeste 0 -- -- 61
2020-06-19 10:00:00 14.8 2 Norte 8 Norte 0 -- -- 73
2020-06-19 09:00:00 12.4 5 Este 11 Nordeste 0 -- -- 80
2020-06-19 08:00:00 9.8 0 Calma 8 Nordeste 0 -- -- 88
2020-06-19 07:00:00 7.8 3 Este 8 Este 0 -- -- 90
2020-06-19 06:00:00 8.6 3 Nordeste 11 Este 0 -- -- 89
2020-06-19 05:00:00 9.4 5 Nordeste 13 Este 0 -- -- 88
2020-06-19 04:00:00 9.7 8 Nordeste 14 Nordeste 0 -- -- 87
2020-06-19 03:00:00 10.5 5 Nordeste 14 Este 0 -- -- 85
2020-06-19 02:00:00 11.6 8 Nordeste 16 Norte 0 -- -- 83
2020-06-19 01:00:00 13.1 8 Nordeste 23 Nordeste 0 -- -- 78
2020-06-19 00:00:00 13.9 7 Nordeste 13 Este 0 -- -- 70
2020-06-18 23:00:00 14.1 0 Calma 4 Oeste 0 -- -- 59
2020-06-18 22:00:00 19.2 0 Calma 13 Noroeste 0 -- -- 53
2020-06-18 21:00:00 22.8 8 Noroeste 14 Noroeste 0 -- -- 38
2020-06-18 20:00:00 23.8 8 Oeste 29 Norte 0 -- -- 35
2020-06-18 19:00:00 24.5 6 Oeste 17 Oeste 0 -- -- 31
2020-06-18 18:00:00 24.1 8 Noroeste 26 Noroeste 0 -- -- 34
2020-06-18 17:00:00 23.9 12 Noroeste 22 Noroeste 0 -- -- 37
2020-06-18 16:00:00 22.5 7 Este 23 Oeste 0 -- -- 41
2020-06-18 15:00:00 21.9 8 Nordeste 22 Norte 0 -- -- 43
2020-06-18 14:00:00 20.5 9 Nordeste 17 Sudoeste 0 -- -- 45
2020-06-18 13:00:00 20.2 5 Nordeste 17 Este 0 -- -- 49
2020-06-18 12:00:00 17.8 6 Norte 15 Nordeste 0 -- -- 56
2020-06-18 11:00:00 16.7 8 Este 17 Nordeste 0 -- -- 61
2020-06-18 10:00:00 14.7 8 Nordeste 18 Este 0 -- -- 71
2020-06-18 09:00:00 12.6 11 Nordeste 20 Este 0 -- -- 80
2020-06-18 08:00:00 10.6 5 Nordeste 12 Nordeste 0 -- -- 85
2020-06-18 07:00:00 9.4 7 Nordeste 11 Nordeste 0 -- -- 89
2020-06-18 06:00:00 9.3 4 Nordeste 9 Nordeste 0 -- -- 90
2020-06-18 05:00:00 9.4 5 Nordeste 12 Este 0 -- -- 88
2020-06-18 04:00:00 9.3 5 Este 12 Nordeste 0 -- -- 87
2020-06-18 03:00:00 10 7 Nordeste 12 Este 0 -- -- 85
2020-06-18 02:00:00 10.5 4 Nordeste 10 Nordeste 0 -- -- 83
2020-06-18 01:00:00 11.8 5 Este 16 Nordeste 0 -- -- 78
2020-06-18 00:00:00 13.4 10 Nordeste 24 Este 0 -- -- 73
2020-06-17 23:00:00 15.8 8 Nordeste 17 Nordeste 0 -- -- 61
2020-06-17 22:00:00 17.8 4 Nordeste 10 Norte 0 -- -- 50
2020-06-17 21:00:00 19.3 3 Nordeste 8 Norte 0 -- -- 41
2020-06-17 20:00:00 20.2 6 Noroeste 16 Oeste 0 -- -- 39
2020-06-17 19:00:00 22.3 7 Noroeste 21 Noroeste 0 -- -- 35
2020-06-17 18:00:00 20.8 9 Norte 23 Norte 0 -- -- 37
2020-06-17 17:00:00 20.3 6 Norte 24 Oeste 0 -- -- 40
2020-06-17 16:00:00 21.5 13 Noroeste 22 Noroeste 0 -- -- 37
2020-06-17 15:00:00 21.1 11 Noroeste 21 Oeste 0 -- -- 39
2020-06-17 14:00:00 19.4 8 Sudoeste 19 Oeste 0 -- -- 42
2020-06-17 13:00:00 17.5 9 Oeste 17 Noroeste 0 -- -- 50
2020-06-17 12:00:00 16.8 5 Norte 12 Norte 0 -- -- 54
2020-06-17 11:00:00 15.4 6 Noroeste 12 Noroeste 0 -- -- 63
2020-06-17 10:00:00 14.2 5 Sur 8 Nordeste 0 -- -- 76
2020-06-17 09:00:00 11.5 0 Calma 5 Este 0 -- -- 88
2020-06-17 08:00:00 9.7 0 Calma 4 Noroeste 0 -- -- 89
2020-06-17 07:00:00 8.6 4 Sur 6 Sur 0 -- -- 89
2020-06-17 06:00:00 9.8 4 Nordeste 8 Este 0 -- -- 89
2020-06-17 05:00:00 9.9 0 Calma 7 Sur 0 -- -- 88
2020-06-17 04:00:00 9.8 3 Sudeste 8 Sur 0 -- -- 86
2020-06-17 03:00:00 10.8 0 Calma 10 Nordeste 0 -- -- 82
2020-06-17 02:00:00 12.3 5 Nordeste 12 Norte 0 -- -- 79
2020-06-17 01:00:00 12.9 4 Nordeste 22 Norte 0 -- -- 70
2020-06-17 00:00:00 13.5 17 Norte 27 Noroeste 0 -- -- 66
2020-06-16 23:00:00 13.3 10 Norte 21 Noroeste 0 -- -- 66
2020-06-16 22:00:00 14.7 14 Norte 32 Norte 0 -- -- 60
2020-06-16 21:00:00 17.1 19 Norte 38 Norte 0 -- -- 49
2020-06-16 20:00:00 18.9 21 Norte 40 Noroeste 0 -- -- 48
2020-06-16 19:00:00 19.9 22 Noroeste 41 Noroeste 0 -- -- 49
2020-06-16 18:00:00 20 22 Noroeste 41 Noroeste 0 -- -- 48
2020-06-16 17:00:00 18.6 15 Noroeste 36 Noroeste 0 -- -- 61
2020-06-16 16:00:00 14.5 18 Norte 44 Noroeste 0.8 -- -- 77
2020-06-16 15:00:00 21.5 19 Oeste 44 Oeste 0 -- -- 50
2020-06-16 14:00:00 19.8 23 Oeste 39 Oeste 0 -- -- 52
2020-06-16 13:00:00 19.5 15 Oeste 30 Oeste 0 -- -- 52
2020-06-16 12:00:00 18.2 13 Noroeste 28 Noroeste 0 -- -- 56
2020-06-16 11:00:00 16.7 12 Oeste 21 Oeste 0 -- -- 59
2020-06-16 10:00:00 16 14 Oeste 21 Oeste 0 -- -- 64
2020-06-16 09:00:00 13.4 8 Sudoeste 14 Sudoeste 0 -- -- 78
2020-06-16 08:00:00 10.6 3 Oeste 8 Sudoeste 0 -- -- 87
2020-06-16 07:00:00 8.7 3 Sudoeste 6 Oeste 0 -- -- 84
2020-06-16 06:00:00 10.7 5 Oeste 9 Oeste 0 -- -- 80
2020-06-16 05:00:00 11.9 0 Calma 12 Sudoeste 0 -- -- 76
2020-06-16 04:00:00 12.7 6 Sudoeste 12 Noroeste 0 -- -- 75
2020-06-16 03:00:00 13 8 Noroeste 13 Noroeste 0 -- -- 73
2020-06-16 02:00:00 13.6 4 Sudoeste 13 Noroeste 0 -- -- 74
2020-06-16 01:00:00 14 6 Oeste 15 Noroeste 0 -- -- 71
2020-06-16 00:00:00 14.4 10 Noroeste 16 Oeste 0 -- -- 68
2020-06-15 23:00:00 15.1 9 Oeste 18 Oeste 0 -- -- 65
2020-06-15 22:00:00 15.9 9 Oeste 22 Oeste 0 -- -- 62
2020-06-15 21:00:00 17.2 15 Oeste 29 Noroeste 0 -- -- 57
2020-06-15 20:00:00 18.4 19 Oeste 33 Oeste 0 -- -- 52
2020-06-15 19:00:00 19.8 17 Oeste 29 Oeste 0 -- -- 48
2020-06-15 18:00:00 20.7 16 Oeste 28 Oeste 0 -- -- 45
2020-06-15 17:00:00 20.7 16 Oeste 32 Oeste 0 -- -- 45
2020-06-15 16:00:00 21.6 17 Noroeste 33 Noroeste 0 -- -- 44
2020-06-15 15:00:00 21 13 Oeste 25 Oeste 0 -- -- 45
2020-06-15 14:00:00 20.2 13 Oeste 22 Oeste 0 -- -- 48
2020-06-15 13:00:00 18.8 6 Noroeste 18 Oeste 0 -- -- 51
2020-06-15 12:00:00 18.4 6 Sudoeste 18 Noroeste 0 -- -- 53
2020-06-15 11:00:00 16.6 5 Sudeste 13 Sudoeste 0 -- -- 60
2020-06-15 10:00:00 15.1 5 Sur 12 Sudoeste 0 -- -- 65
2020-06-15 09:00:00 12.9 4 Sudoeste 6 Sudoeste 0 -- -- 78
2020-06-15 08:00:00 8.2 0 Calma 2 Noroeste 0 -- -- 92
2020-06-15 07:00:00 5.5 0 Calma 4 Oeste 0 -- -- 88
2020-06-15 06:00:00 6.2 0 Calma 2 Sudoeste 0 -- -- 86
2020-06-15 05:00:00 7.3 0 Calma 6 Noroeste 0 -- -- 85
2020-06-15 04:00:00 9 0 Calma 11 Noroeste 0 -- -- 82
2020-06-15 03:00:00 10.4 9 Noroeste 18 Norte 0 -- -- 81
2020-06-15 02:00:00 10.1 4 Noroeste 9 Noroeste 0 -- -- 82
2020-06-15 01:00:00 11.9 7 Noroeste 10 Oeste 0 -- -- 77
2020-06-15 00:00:00 13.9 3 Oeste 11 Oeste 0 -- -- 71
2020-06-14 23:00:00 14.9 8 Oeste 22 Oeste 0 -- -- 65
2020-06-14 22:00:00 16 15 Noroeste 33 Oeste 0 -- -- 59
2020-06-14 21:00:00 17.2 17 Oeste 32 Oeste 0 -- -- 55
2020-06-14 20:00:00 19.3 18 Oeste 32 Oeste 0 -- -- 48
2020-06-14 19:00:00 19.8 17 Oeste 28 Noroeste 0 -- -- 45
2020-06-14 18:00:00 19.7 19 Oeste 31 Noroeste 0 -- -- 46
2020-06-14 17:00:00 19.7 18 Oeste 35 Noroeste 0 -- -- 45
2020-06-14 16:00:00 20.3 18 Oeste 31 Noroeste 0 -- -- 43
2020-06-14 15:00:00 20.4 17 Oeste 34 Oeste 0 -- -- 42
2020-06-14 14:00:00 18.7 14 Oeste 32 Oeste 0 -- -- 46
2020-06-14 13:00:00 18.2 17 Noroeste 31 Oeste 0 -- -- 44
2020-06-14 12:00:00 16.8 14 Oeste 25 Oeste 0 -- -- 51
2020-06-14 11:00:00 15.1 17 Oeste 27 Sudoeste 0 -- -- 58
2020-06-14 10:00:00 12.6 12 Oeste 23 Oeste 0 -- -- 75
2020-06-14 09:00:00 10.8 9 Oeste 16 Oeste 0 -- -- 89
2020-06-14 08:00:00 6.7 3 Noroeste 5 Oeste 0 -- -- 95
2020-06-14 07:00:00 4.5 3 Oeste 4 Noroeste 0 -- -- 92
2020-06-14 06:00:00 4.5 0 Calma 4 Noroeste 0 -- -- 91
2020-06-14 05:00:00 5 3 Noroeste 4 Noroeste 0 -- -- 90
2020-06-14 04:00:00 5.6 2 Sudoeste 6 Sur 0 -- -- 89
2020-06-14 03:00:00 6.5 6 Sur 9 Sudoeste 0 -- -- 86
2020-06-14 02:00:00 7.9 3 Sudoeste 6 Sudoeste 0 -- -- 87
2020-06-14 01:00:00 7.8 3 Sur 8 Sudoeste 0 -- -- 83
2020-06-14 00:00:00 8.9 5 Oeste 8 Sudoeste 0 -- -- 78
2020-06-13 23:00:00 10.8 5 Sudoeste 8 Oeste 0 -- -- 74
2020-06-13 22:00:00 13.7 6 Oeste 18 Oeste 0 -- -- 66
2020-06-13 21:00:00 15.6 9 Oeste 26 Oeste 0 -- -- 58
2020-06-13 20:00:00 16.7 12 Oeste 28 Oeste 0 -- -- 56
2020-06-13 19:00:00 16.5 15 Oeste 35 Oeste 0 -- -- 55
2020-06-13 18:00:00 17.3 16 Oeste 32 Sudoeste 0 -- -- 55
2020-06-13 17:00:00 17.1 21 Oeste 36 Oeste 0 -- -- 54
2020-06-13 16:00:00 17.1 19 Oeste 39 Oeste 0 -- -- 53
2020-06-13 15:00:00 16.8 20 Oeste 48 Oeste 0 -- -- 53
2020-06-13 14:00:00 16.8 19 Oeste 39 Oeste 0 -- -- 54
2020-06-13 13:00:00 16 18 Oeste 38 Oeste 0 -- -- 59
2020-06-13 12:00:00 14.8 19 Oeste 40 Oeste 0 -- -- 64
2020-06-13 11:00:00 13.1 19 Oeste 35 Oeste 0 -- -- 74
2020-06-13 10:00:00 12 17 Oeste 32 Oeste 0 -- -- 84
2020-06-13 09:00:00 10.3 16 Oeste 31 Oeste 0 -- -- 92
2020-06-13 08:00:00 7.9 12 Oeste 22 Oeste 0 -- -- 94
2020-06-13 07:00:00 7.4 12 Oeste 22 Sudoeste 0 -- -- 94
2020-06-13 06:00:00 7.3 9 Oeste 16 Oeste 0 -- -- 93
2020-06-13 05:00:00 8 7 Oeste 19 Oeste 0 -- -- 93
2020-06-13 04:00:00 8.6 9 Sudoeste 18 Oeste 0 -- -- 93
2020-06-13 03:00:00 8.5 8 Sudoeste 17 Oeste 0 -- -- 92
2020-06-13 02:00:00 9.1 10 Oeste 22 Oeste 0 -- -- 92
2020-06-13 01:00:00 9.5 14 Oeste 24 Oeste 0 -- -- 92
2020-06-13 00:00:00 10.1 13 Oeste 27 Oeste 0 -- -- 92
2020-06-12 23:00:00 9.9 12 Oeste 23 Oeste 0 -- -- 90
2020-06-12 22:00:00 10.6 20 Oeste 36 Oeste 1.2 -- -- 88
2020-06-12 21:00:00 12.1 21 Oeste 34 Oeste 0 -- -- 85
2020-06-12 20:00:00 12.4 21 Sudoeste 34 Oeste 0.2 -- -- 87
2020-06-12 19:00:00 11.3 19 Sudoeste 34 Oeste 0.4 -- -- 87
2020-06-12 18:00:00 11.5 23 Oeste 45 Oeste 0.8 -- -- 85
2020-06-12 17:00:00 13.3 30 Noroeste 45 Oeste 0 -- -- 80
2020-06-12 16:00:00 13.9 26 Oeste 55 Oeste 0.6 -- -- 84
2020-06-12 15:00:00 15.1 27 Oeste 50 Oeste 0 -- -- 59
2020-06-12 14:00:00 13.3 24 Oeste 44 Oeste 0 -- -- 70
2020-06-12 13:00:00 15.5 28 Oeste 46 Oeste 0 -- -- 57
2020-06-12 12:00:00 14 26 Oeste 46 Oeste 0 -- -- 60
2020-06-12 11:00:00 13.1 26 Oeste 53 Oeste 0 -- -- 63
2020-06-12 10:00:00 11.9 27 Oeste 45 Oeste 0 -- -- 75
2020-06-12 09:00:00 10.6 30 Oeste 47 Oeste 0 -- -- 79
2020-06-12 08:00:00 9.7 26 Oeste 42 Oeste 0 -- -- 82
2020-06-12 07:00:00 9.2 27 Oeste 48 Oeste 0 -- -- 81
2020-06-12 06:00:00 9.5 31 Oeste 52 Oeste 0 -- -- 77
2020-06-12 05:00:00 9.2 25 Sudoeste 48 Oeste 0 -- -- 74
2020-06-12 04:00:00 9 21 Oeste 43 Sudoeste 0 -- -- 71
2020-06-12 03:00:00 8.9 24 Sudoeste 37 Oeste 0 -- -- 74
2020-06-12 02:00:00 8.9 18 Oeste 37 Oeste 0 -- -- 70
2020-06-12 01:00:00 8.4 21 Oeste 39 Oeste 0 -- -- 71
2020-06-12 00:00:00 9.4 16 Oeste 32 Oeste 0 -- -- 70
2020-06-11 23:00:00 9.7 11 Oeste 22 Noroeste 0 -- -- 68
2020-06-11 22:00:00 11.5 15 Noroeste 39 Noroeste 0 -- -- 63
2020-06-11 21:00:00 14.6 26 Noroeste 53 Oeste 0 -- -- 52
2020-06-11 20:00:00 16.5 32 Noroeste 56 Oeste 0 -- -- 45
2020-06-11 19:00:00 18.7 35 Oeste 64 Oeste 0 -- -- 43
2020-06-11 18:00:00 18.1 33 Oeste 55 Oeste 0 -- -- 48
2020-06-11 17:00:00 20.3 35 Oeste 58 Oeste 0 -- -- 42
2020-06-11 16:00:00 20.4 30 Oeste 59 Oeste 0 -- -- 48
2020-06-11 15:00:00 19.1 31 Oeste 49 Oeste 0 -- -- 47
2020-06-11 14:00:00 17.4 27 Oeste 44 Oeste 0 -- -- 57
2020-06-11 13:00:00 17.6 21 Oeste 42 Oeste 0 -- -- 57
2020-06-11 12:00:00 17.9 17 Oeste 32 Noroeste 0 -- -- 58
2020-06-11 11:00:00 16.5 16 Oeste 30 Sudoeste 0 -- -- 61
2020-06-11 10:00:00 15.3 19 Oeste 32 Oeste 0 -- -- 63
2020-06-11 09:00:00 14.3 16 Oeste 28 Oeste 0 -- -- 75
2020-06-11 08:00:00 11.7 7 Oeste 13 Oeste 0 -- -- 90
2020-06-11 07:00:00 9.2 0 Calma 4 Sudeste 0 -- -- 89
2020-06-11 06:00:00 8.2 0 Calma 6 Oeste 0 -- -- 88
2020-06-11 05:00:00 8.1 0 Calma 8 Noroeste 0 -- -- 87
2020-06-11 04:00:00 9.1 3 Sudoeste 4 Este 0 -- -- 84
2020-06-11 03:00:00 10.9 2 Este 9 Nordeste 0 -- -- 81
2020-06-11 02:00:00 12.9 5 Nordeste 8 Nordeste 0 -- -- 75
2020-06-11 01:00:00 15.2 4 Nordeste 20 Norte 0 -- -- 66
2020-06-11 00:00:00 17 14 Norte 22 Norte 0 -- -- 48